sensor_id;sensor_type;location;lat;lon;timestamp;P1;durP1;ratioP1;P2;durP2;ratioP2
10565;SDS011;5331;48.148;16.326;2022-11-18T00:01:45;19.20;;;14.30;;
10565;SDS011;5331;48.148;16.326;2022-11-18T00:04:13;17.77;;;13.63;;
10565;SDS011;5331;48.148;16.326;2022-11-18T00:06:41;19.90;;;15.37;;
10565;SDS011;5331;48.148;16.326;2022-11-18T00:09:08;22.33;;;15.67;;
10565;SDS011;5331;48.148;16.326;2022-11-18T00:11:35;17.87;;;14.67;;
10565;SDS011;5331;48.148;16.326;2022-11-18T00:14:20;19.50;;;14.47;;
10565;SDS011;5331;48.148;16.326;2022-11-18T00:16:49;19.53;;;14.00;;
10565;SDS011;5331;48.148;16.326;2022-11-18T00:19:18;18.43;;;14.23;;
10565;SDS011;5331;48.148;16.326;2022-11-18T00:21:47;19.80;;;14.70;;
10565;SDS011;5331;48.148;16.326;2022-11-18T00:24:15;19.10;;;14.67;;
10565;SDS011;5331;48.148;16.326;2022-11-18T00:26:42;19.10;;;14.27;;
10565;SDS011;5331;48.148;16.326;2022-11-18T00:29:09;20.13;;;15.07;;
10565;SDS011;5331;48.148;16.326;2022-11-18T00:31:36;20.43;;;14.63;;
10565;SDS011;5331;48.148;16.326;2022-11-18T00:34:03;22.43;;;14.83;;
10565;SDS011;5331;48.148;16.326;2022-11-18T00:36:31;19.87;;;14.70;;
10565;SDS011;5331;48.148;16.326;2022-11-18T00:38:59;20.20;;;14.87;;
10565;SDS011;5331;48.148;16.326;2022-11-18T00:41:26;24.23;;;17.03;;
10565;SDS011;5331;48.148;16.326;2022-11-18T00:44:13;21.90;;;13.80;;
10565;SDS011;5331;48.148;16.326;2022-11-18T00:46:39;21.00;;;14.37;;
10565;SDS011;5331;48.148;16.326;2022-11-18T00:49:06;21.40;;;14.77;;
10565;SDS011;5331;48.148;16.326;2022-11-18T00:51:33;22.20;;;14.77;;
10565;SDS011;5331;48.148;16.326;2022-11-18T00:54:02;20.13;;;14.13;;
10565;SDS011;5331;48.148;16.326;2022-11-18T00:56:29;23.70;;;15.20;;
10565;SDS011;5331;48.148;16.326;2022-11-18T00:58:56;21.50;;;14.30;;
10565;SDS011;5331;48.148;16.326;2022-11-18T01:01:23;23.07;;;15.30;;
10565;SDS011;5331;48.148;16.326;2022-11-18T01:03:50;22.33;;;14.53;;
10565;SDS011;5331;48.148;16.326;2022-11-18T01:06:17;27.70;;;15.70;;
10565;SDS011;5331;48.148;16.326;2022-11-18T01:08:44;29.83;;;16.07;;
10565;SDS011;5331;48.148;16.326;2022-11-18T01:11:12;26.47;;;15.67;;
10565;SDS011;5331;48.148;16.326;2022-11-18T01:13:57;27.10;;;15.40;;
10565;SDS011;5331;48.148;16.326;2022-11-18T01:16:24;26.90;;;16.13;;
10565;SDS011;5331;48.148;16.326;2022-11-18T01:18:53;27.23;;;16.53;;
10565;SDS011;5331;48.148;16.326;2022-11-18T01:21:20;26.57;;;15.87;;
10565;SDS011;5331;48.148;16.326;2022-11-18T01:23:47;28.40;;;16.37;;
10565;SDS011;5331;48.148;16.326;2022-11-18T01:26:16;23.80;;;15.50;;
10565;SDS011;5331;48.148;16.326;2022-11-18T01:28:43;26.97;;;16.57;;
10565;SDS011;5331;48.148;16.326;2022-11-18T01:31:11;27.03;;;15.90;;
10565;SDS011;5331;48.148;16.326;2022-11-18T01:33:38;29.70;;;16.77;;
10565;SDS011;5331;48.148;16.326;2022-11-18T01:36:13;26.90;;;16.43;;
10565;SDS011;5331;48.148;16.326;2022-11-18T01:38:41;29.17;;;16.80;;
10565;SDS011;5331;48.148;16.326;2022-11-18T01:41:08;25.63;;;15.97;;
10565;SDS011;5331;48.148;16.326;2022-11-18T01:43:47;29.87;;;17.37;;
10565;SDS011;5331;48.148;16.326;2022-11-18T01:46:16;29.73;;;16.37;;
10565;SDS011;5331;48.148;16.326;2022-11-18T01:48:44;31.03;;;15.87;;
10565;SDS011;5331;48.148;16.326;2022-11-18T01:51:15;33.73;;;17.03;;
10565;SDS011;5331;48.148;16.326;2022-11-18T01:53:45;32.67;;;17.47;;
10565;SDS011;5331;48.148;16.326;2022-11-18T01:56:17;27.47;;;15.40;;
10565;SDS011;5331;48.148;16.326;2022-11-18T01:58:50;29.07;;;15.10;;
10565;SDS011;5331;48.148;16.326;2022-11-18T02:01:19;32.37;;;17.67;;
10565;SDS011;5331;48.148;16.326;2022-11-18T02:03:46;30.13;;;17.00;;
10565;SDS011;5331;48.148;16.326;2022-11-18T02:06:14;31.87;;;16.50;;
10565;SDS011;5331;48.148;16.326;2022-11-18T02:08:41;30.45;;;16.98;;
10565;SDS011;5331;48.148;16.326;2022-11-18T02:11:10;30.47;;;16.07;;
10565;SDS011;5331;48.148;16.326;2022-11-18T02:14:00;33.43;;;17.77;;
10565;SDS011;5331;48.148;16.326;2022-11-18T02:16:31;29.00;;;16.80;;
10565;SDS011;5331;48.148;16.326;2022-11-18T02:19:13;34.63;;;17.47;;
10565;SDS011;5331;48.148;16.326;2022-11-18T02:21:59;32.13;;;17.43;;
10565;SDS011;5331;48.148;16.326;2022-11-18T02:24:39;35.67;;;18.17;;
10565;SDS011;5331;48.148;16.326;2022-11-18T02:27:22;32.27;;;18.10;;
10565;SDS011;5331;48.148;16.326;2022-11-18T02:30:19;28.43;;;17.43;;
10565;SDS011;5331;48.148;16.326;2022-11-18T02:32:47;26.47;;;16.73;;
10565;SDS011;5331;48.148;16.326;2022-11-18T02:35:21;31.53;;;18.40;;
10565;SDS011;5331;48.148;16.326;2022-11-18T02:37:55;32.07;;;18.57;;
10565;SDS011;5331;48.148;16.326;2022-11-18T02:40:25;29.30;;;17.77;;
10565;SDS011;5331;48.148;16.326;2022-11-18T02:42:55;30.67;;;18.23;;
10565;SDS011;5331;48.148;16.326;2022-11-18T02:45:27;30.27;;;18.17;;
10565;SDS011;5331;48.148;16.326;2022-11-18T02:47:56;29.17;;;18.47;;
10565;SDS011;5331;48.148;16.326;2022-11-18T02:50:24;26.97;;;17.73;;
10565;SDS011;5331;48.148;16.326;2022-11-18T02:52:55;31.10;;;19.43;;
10565;SDS011;5331;48.148;16.326;2022-11-18T02:55:25;34.03;;;19.97;;
10565;SDS011;5331;48.148;16.326;2022-11-18T02:57:54;29.23;;;18.90;;
10565;SDS011;5331;48.148;16.326;2022-11-18T03:00:22;25.17;;;17.73;;
10565;SDS011;5331;48.148;16.326;2022-11-18T03:02:51;29.43;;;18.47;;
10565;SDS011;5331;48.148;16.326;2022-11-18T03:05:19;30.90;;;18.37;;
10565;SDS011;5331;48.148;16.326;2022-11-18T03:07:53;26.77;;;16.90;;
10565;SDS011;5331;48.148;16.326;2022-11-18T03:10:22;32.97;;;17.40;;
10565;SDS011;5331;48.148;16.326;2022-11-18T03:12:57;28.20;;;17.93;;
10565;SDS011;5331;48.148;16.326;2022-11-18T03:15:32;26.33;;;16.90;;
10565;SDS011;5331;48.148;16.326;2022-11-18T03:18:10;32.27;;;18.30;;
10565;SDS011;5331;48.148;16.326;2022-11-18T03:20:44;34.40;;;18.50;;
10565;SDS011;5331;48.148;16.326;2022-11-18T03:23:17;31.87;;;17.93;;
10565;SDS011;5331;48.148;16.326;2022-11-18T03:25:50;33.73;;;18.77;;
10565;SDS011;5331;48.148;16.326;2022-11-18T03:28:21;31.20;;;18.23;;
10565;SDS011;5331;48.148;16.326;2022-11-18T03:30:53;33.50;;;18.83;;
10565;SDS011;5331;48.148;16.326;2022-11-18T03:33:29;33.73;;;17.23;;
10565;SDS011;5331;48.148;16.326;2022-11-18T03:36:00;37.57;;;19.80;;
10565;SDS011;5331;48.148;16.326;2022-11-18T03:38:31;35.80;;;19.00;;
10565;SDS011;5331;48.148;16.326;2022-11-18T03:41:02;39.43;;;19.03;;
10565;SDS011;5331;48.148;16.326;2022-11-18T03:43:35;38.53;;;19.00;;
10565;SDS011;5331;48.148;16.326;2022-11-18T03:46:06;36.00;;;17.97;;
10565;SDS011;5331;48.148;16.326;2022-11-18T03:48:39;36.93;;;17.83;;
10565;SDS011;5331;48.148;16.326;2022-11-18T03:51:09;31.20;;;16.87;;
10565;SDS011;5331;48.148;16.326;2022-11-18T03:53:41;33.40;;;17.30;;
10565;SDS011;5331;48.148;16.326;2022-11-18T03:56:11;32.50;;;16.77;;
10565;SDS011;5331;48.148;16.326;2022-11-18T03:58:42;31.80;;;16.33;;
10565;SDS011;5331;48.148;16.326;2022-11-18T04:01:15;31.20;;;16.50;;
10565;SDS011;5331;48.148;16.326;2022-11-18T04:03:47;33.07;;;17.63;;
10565;SDS011;5331;48.148;16.326;2022-11-18T04:06:15;31.60;;;16.00;;
10565;SDS011;5331;48.148;16.326;2022-11-18T04:08:49;27.37;;;15.73;;
10565;SDS011;5331;48.148;16.326;2022-11-18T04:11:22;30.63;;;15.93;;
10565;SDS011;5331;48.148;16.326;2022-11-18T04:14:12;29.47;;;15.20;;
10565;SDS011;5331;48.148;16.326;2022-11-18T04:16:41;29.40;;;15.37;;
10565;SDS011;5331;48.148;16.326;2022-11-18T04:19:10;31.27;;;17.27;;
10565;SDS011;5331;48.148;16.326;2022-11-18T04:21:37;27.70;;;15.97;;
10565;SDS011;5331;48.148;16.326;2022-11-18T04:24:04;29.27;;;16.20;;
10565;SDS011;5331;48.148;16.326;2022-11-18T04:26:31;34.30;;;16.47;;
10565;SDS011;5331;48.148;16.326;2022-11-18T04:28:58;29.57;;;16.00;;
10565;SDS011;5331;48.148;16.326;2022-11-18T04:31:25;30.47;;;15.97;;
10565;SDS011;5331;48.148;16.326;2022-11-18T04:33:52;30.00;;;16.17;;
10565;SDS011;5331;48.148;16.326;2022-11-18T04:36:20;28.17;;;16.07;;
10565;SDS011;5331;48.148;16.326;2022-11-18T04:38:47;30.13;;;16.87;;
10565;SDS011;5331;48.148;16.326;2022-11-18T04:41:14;34.37;;;18.17;;
10565;SDS011;5331;48.148;16.326;2022-11-18T04:43:41;25.93;;;16.50;;
10565;SDS011;5331;48.148;16.326;2022-11-18T04:46:07;30.93;;;17.20;;
10565;SDS011;5331;48.148;16.326;2022-11-18T04:48:34;30.73;;;16.27;;
10565;SDS011;5331;48.148;16.326;2022-11-18T04:51:01;24.93;;;15.97;;
10565;SDS011;5331;48.148;16.326;2022-11-18T04:53:30;27.03;;;16.27;;
10565;SDS011;5331;48.148;16.326;2022-11-18T04:56:03;28.87;;;16.30;;
10565;SDS011;5331;48.148;16.326;2022-11-18T04:58:31;31.80;;;17.43;;
10565;SDS011;5331;48.148;16.326;2022-11-18T05:00:58;28.70;;;17.30;;
10565;SDS011;5331;48.148;16.326;2022-11-18T05:03:25;28.07;;;16.07;;
10565;SDS011;5331;48.148;16.326;2022-11-18T05:05:52;27.37;;;15.87;;
10565;SDS011;5331;48.148;16.326;2022-11-18T05:08:19;29.23;;;16.57;;
10565;SDS011;5331;48.148;16.326;2022-11-18T05:10:47;26.17;;;16.37;;
10565;SDS011;5331;48.148;16.326;2022-11-18T05:13:14;28.00;;;16.40;;
10565;SDS011;5331;48.148;16.326;2022-11-18T05:15:39;29.73;;;16.73;;
10565;SDS011;5331;48.148;16.326;2022-11-18T05:18:08;36.20;;;18.57;;
10565;SDS011;5331;48.148;16.326;2022-11-18T05:20:36;31.60;;;17.57;;
10565;SDS011;5331;48.148;16.326;2022-11-18T05:23:03;34.03;;;17.70;;
10565;SDS011;5331;48.148;16.326;2022-11-18T05:25:30;32.90;;;17.57;;
10565;SDS011;5331;48.148;16.326;2022-11-18T05:27:58;32.50;;;17.60;;
10565;SDS011;5331;48.148;16.326;2022-11-18T05:30:25;36.70;;;19.73;;
10565;SDS011;5331;48.148;16.326;2022-11-18T05:32:52;37.60;;;20.03;;
10565;SDS011;5331;48.148;16.326;2022-11-18T05:35:18;33.00;;;18.53;;
10565;SDS011;5331;48.148;16.326;2022-11-18T05:37:45;32.37;;;17.77;;
10565;SDS011;5331;48.148;16.326;2022-11-18T05:40:12;34.73;;;18.87;;
10565;SDS011;5331;48.148;16.326;2022-11-18T05:42:39;31.57;;;18.40;;
10565;SDS011;5331;48.148;16.326;2022-11-18T05:45:25;38.10;;;19.97;;
10565;SDS011;5331;48.148;16.326;2022-11-18T05:47:51;32.20;;;17.90;;
10565;SDS011;5331;48.148;16.326;2022-11-18T05:50:28;31.90;;;17.70;;
10565;SDS011;5331;48.148;16.326;2022-11-18T05:52:56;30.37;;;17.63;;
10565;SDS011;5331;48.148;16.326;2022-11-18T05:55:23;36.17;;;18.80;;
10565;SDS011;5331;48.148;16.326;2022-11-18T05:57:54;33.63;;;17.67;;
10565;SDS011;5331;48.148;16.326;2022-11-18T06:00:21;32.63;;;18.37;;
10565;SDS011;5331;48.148;16.326;2022-11-18T06:02:50;28.80;;;16.53;;
10565;SDS011;5331;48.148;16.326;2022-11-18T06:05:19;33.80;;;17.23;;
10565;SDS011;5331;48.148;16.326;2022-11-18T06:07:47;30.20;;;16.43;;
10565;SDS011;5331;48.148;16.326;2022-11-18T06:10:15;32.33;;;18.07;;
10565;SDS011;5331;48.148;16.326;2022-11-18T06:12:46;33.00;;;18.10;;
10565;SDS011;5331;48.148;16.326;2022-11-18T06:15:16;33.60;;;17.57;;
10565;SDS011;5331;48.148;16.326;2022-11-18T06:17:47;36.63;;;17.83;;
10565;SDS011;5331;48.148;16.326;2022-11-18T06:20:19;31.67;;;17.47;;
10565;SDS011;5331;48.148;16.326;2022-11-18T06:22:47;30.10;;;17.17;;
10565;SDS011;5331;48.148;16.326;2022-11-18T06:25:16;31.27;;;17.03;;
10565;SDS011;5331;48.148;16.326;2022-11-18T06:27:43;33.50;;;16.97;;
10565;SDS011;5331;48.148;16.326;2022-11-18T06:30:11;31.77;;;17.53;;
10565;SDS011;5331;48.148;16.326;2022-11-18T06:32:38;29.40;;;16.43;;
10565;SDS011;5331;48.148;16.326;2022-11-18T06:35:07;28.70;;;16.70;;
10565;SDS011;5331;48.148;16.326;2022-11-18T06:37:34;32.70;;;17.00;;
10565;SDS011;5331;48.148;16.326;2022-11-18T06:40:02;31.33;;;16.20;;
10565;SDS011;5331;48.148;16.326;2022-11-18T06:42:29;29.20;;;16.70;;
10565;SDS011;5331;48.148;16.326;2022-11-18T06:45:13;28.93;;;16.60;;
10565;SDS011;5331;48.148;16.326;2022-11-18T06:47:40;26.03;;;15.23;;
10565;SDS011;5331;48.148;16.326;2022-11-18T06:50:08;28.17;;;15.43;;
10565;SDS011;5331;48.148;16.326;2022-11-18T06:52:35;32.60;;;17.27;;
10565;SDS011;5331;48.148;16.326;2022-11-18T06:55:03;33.83;;;17.07;;
10565;SDS011;5331;48.148;16.326;2022-11-18T06:57:32;32.03;;;17.80;;
10565;SDS011;5331;48.148;16.326;2022-11-18T06:59:59;30.43;;;16.90;;
10565;SDS011;5331;48.148;16.326;2022-11-18T07:02:26;28.93;;;16.47;;
10565;SDS011;5331;48.148;16.326;2022-11-18T07:04:55;30.47;;;16.03;;
10565;SDS011;5331;48.148;16.326;2022-11-18T07:07:23;28.47;;;16.03;;
10565;SDS011;5331;48.148;16.326;2022-11-18T07:09:51;33.80;;;17.17;;
10565;SDS011;5331;48.148;16.326;2022-11-18T07:12:18;29.73;;;15.67;;
10565;SDS011;5331;48.148;16.326;2022-11-18T07:14:45;30.47;;;14.97;;
10565;SDS011;5331;48.148;16.326;2022-11-18T07:17:12;28.03;;;16.70;;
10565;SDS011;5331;48.148;16.326;2022-11-18T07:19:39;24.10;;;13.97;;
10565;SDS011;5331;48.148;16.326;2022-11-18T07:22:06;33.80;;;16.67;;
10565;SDS011;5331;48.148;16.326;2022-11-18T07:24:34;25.37;;;15.40;;
10565;SDS011;5331;48.148;16.326;2022-11-18T07:27:02;27.57;;;15.57;;
10565;SDS011;5331;48.148;16.326;2022-11-18T07:29:29;26.13;;;14.87;;
10565;SDS011;5331;48.148;16.326;2022-11-18T07:31:55;25.00;;;14.77;;
10565;SDS011;5331;48.148;16.326;2022-11-18T07:34:23;28.93;;;15.50;;
10565;SDS011;5331;48.148;16.326;2022-11-18T07:36:50;29.87;;;15.77;;
10565;SDS011;5331;48.148;16.326;2022-11-18T07:39:16;29.13;;;15.27;;
10565;SDS011;5331;48.148;16.326;2022-11-18T07:41:45;27.47;;;16.03;;
10565;SDS011;5331;48.148;16.326;2022-11-18T07:44:11;26.17;;;14.73;;
10565;SDS011;5331;48.148;16.326;2022-11-18T07:46:38;25.33;;;14.23;;
10565;SDS011;5331;48.148;16.326;2022-11-18T07:49:06;29.17;;;15.13;;
10565;SDS011;5331;48.148;16.326;2022-11-18T07:51:34;23.60;;;14.10;;
10565;SDS011;5331;48.148;16.326;2022-11-18T07:54:04;24.13;;;13.90;;
10565;SDS011;5331;48.148;16.326;2022-11-18T07:56:31;24.37;;;14.47;;
10565;SDS011;5331;48.148;16.326;2022-11-18T07:59:00;23.40;;;14.07;;
10565;SDS011;5331;48.148;16.326;2022-11-18T08:01:27;25.10;;;15.00;;
10565;SDS011;5331;48.148;16.326;2022-11-18T08:03:54;26.23;;;14.18;;
10565;SDS011;5331;48.148;16.326;2022-11-18T08:06:22;21.27;;;13.70;;
10565;SDS011;5331;48.148;16.326;2022-11-18T08:08:49;22.67;;;12.60;;
10565;SDS011;5331;48.148;16.326;2022-11-18T08:11:16;21.07;;;12.87;;
10565;SDS011;5331;48.148;16.326;2022-11-18T08:13:44;23.63;;;12.88;;
10565;SDS011;5331;48.148;16.326;2022-11-18T08:16:13;21.57;;;13.03;;
10565;SDS011;5331;48.148;16.326;2022-11-18T08:18:41;22.67;;;12.15;;
10565;SDS011;5331;48.148;16.326;2022-11-18T08:21:08;20.20;;;12.77;;
10565;SDS011;5331;48.148;16.326;2022-11-18T08:23:35;21.37;;;12.77;;
10565;SDS011;5331;48.148;16.326;2022-11-18T08:26:03;20.70;;;12.63;;
10565;SDS011;5331;48.148;16.326;2022-11-18T08:28:32;20.80;;;11.97;;
10565;SDS011;5331;48.148;16.326;2022-11-18T08:30:59;19.60;;;12.03;;
10565;SDS011;5331;48.148;16.326;2022-11-18T08:33:27;19.52;;;11.77;;
10565;SDS011;5331;48.148;16.326;2022-11-18T08:35:54;18.90;;;12.17;;
10565;SDS011;5331;48.148;16.326;2022-11-18T08:38:21;17.40;;;11.05;;
10565;SDS011;5331;48.148;16.326;2022-11-18T08:40:48;23.65;;;12.93;;
10565;SDS011;5331;48.148;16.326;2022-11-18T08:43:15;20.17;;;12.03;;
10565;SDS011;5331;48.148;16.326;2022-11-18T08:45:42;19.10;;;11.93;;
10565;SDS011;5331;48.148;16.326;2022-11-18T08:48:09;18.80;;;11.23;;
10565;SDS011;5331;48.148;16.326;2022-11-18T08:50:37;18.33;;;11.70;;
10565;SDS011;5331;48.148;16.326;2022-11-18T08:53:04;19.57;;;11.70;;
10565;SDS011;5331;48.148;16.326;2022-11-18T08:55:31;22.77;;;11.87;;
10565;SDS011;5331;48.148;16.326;2022-11-18T08:57:58;21.90;;;12.57;;
10565;SDS011;5331;48.148;16.326;2022-11-18T09:00:25;20.15;;;11.93;;
10565;SDS011;5331;48.148;16.326;2022-11-18T09:02:52;20.27;;;12.00;;
10565;SDS011;5331;48.148;16.326;2022-11-18T09:05:19;19.20;;;11.53;;
10565;SDS011;5331;48.148;16.326;2022-11-18T09:07:47;19.30;;;12.07;;
10565;SDS011;5331;48.148;16.326;2022-11-18T09:10:14;18.52;;;11.23;;
10565;SDS011;5331;48.148;16.326;2022-11-18T09:12:41;15.33;;;10.27;;
10565;SDS011;5331;48.148;16.326;2022-11-18T09:15:08;18.37;;;10.60;;
10565;SDS011;5331;48.148;16.326;2022-11-18T09:17:36;18.03;;;10.63;;
10565;SDS011;5331;48.148;16.326;2022-11-18T09:20:03;15.87;;;10.47;;
10565;SDS011;5331;48.148;16.326;2022-11-18T09:22:30;17.40;;;10.10;;
10565;SDS011;5331;48.148;16.326;2022-11-18T09:24:58;16.77;;;10.23;;
10565;SDS011;5331;48.148;16.326;2022-11-18T09:27:25;14.90;;;9.55;;
10565;SDS011;5331;48.148;16.326;2022-11-18T09:29:52;16.67;;;9.67;;
10565;SDS011;5331;48.148;16.326;2022-11-18T09:32:19;16.23;;;9.60;;
10565;SDS011;5331;48.148;16.326;2022-11-18T09:34:46;14.23;;;9.70;;
10565;SDS011;5331;48.148;16.326;2022-11-18T09:37:13;15.80;;;10.33;;
10565;SDS011;5331;48.148;16.326;2022-11-18T09:39:40;15.57;;;10.03;;
10565;SDS011;5331;48.148;16.326;2022-11-18T09:42:13;14.33;;;9.33;;
10565;SDS011;5331;48.148;16.326;2022-11-18T09:44:54;14.75;;;9.48;;
10565;SDS011;5331;48.148;16.326;2022-11-18T09:47:31;13.37;;;9.10;;
10565;SDS011;5331;48.148;16.326;2022-11-18T09:50:00;14.40;;;9.83;;
10565;SDS011;5331;48.148;16.326;2022-11-18T09:52:30;15.27;;;9.67;;
10565;SDS011;5331;48.148;16.326;2022-11-18T09:55:02;15.93;;;9.53;;
10565;SDS011;5331;48.148;16.326;2022-11-18T09:57:38;14.10;;;8.97;;
10565;SDS011;5331;48.148;16.326;2022-11-18T10:00:09;16.37;;;9.80;;
10565;SDS011;5331;48.148;16.326;2022-11-18T10:02:46;12.83;;;9.43;;
10565;SDS011;5331;48.148;16.326;2022-11-18T10:05:18;14.17;;;9.30;;
10565;SDS011;5331;48.148;16.326;2022-11-18T10:07:48;12.73;;;9.33;;
10565;SDS011;5331;48.148;16.326;2022-11-18T10:10:26;13.00;;;8.90;;
10565;SDS011;5331;48.148;16.326;2022-11-18T10:13:03;12.87;;;9.17;;
10565;SDS011;5331;48.148;16.326;2022-11-18T10:15:38;12.50;;;8.05;;
10565;SDS011;5331;48.148;16.326;2022-11-18T10:18:16;11.40;;;8.67;;
10565;SDS011;5331;48.148;16.326;2022-11-18T10:20:51;11.63;;;8.57;;
10565;SDS011;5331;48.148;16.326;2022-11-18T10:23:25;12.18;;;8.52;;
10565;SDS011;5331;48.148;16.326;2022-11-18T10:25:57;12.18;;;9.18;;
10565;SDS011;5331;48.148;16.326;2022-11-18T10:28:26;13.60;;;9.35;;
10565;SDS011;5331;48.148;16.326;2022-11-18T10:31:02;17.63;;;10.63;;
10565;SDS011;5331;48.148;16.326;2022-11-18T10:33:30;17.73;;;11.82;;
10565;SDS011;5331;48.148;16.326;2022-11-18T10:36:11;15.13;;;11.30;;
10565;SDS011;5331;48.148;16.326;2022-11-18T10:39:04;13.45;;;9.07;;
10565;SDS011;5331;48.148;16.326;2022-11-18T10:41:38;12.80;;;8.88;;
10565;SDS011;5331;48.148;16.326;2022-11-18T10:44:34;11.13;;;9.10;;
10565;SDS011;5331;48.148;16.326;2022-11-18T10:49:57;8.73;;;6.60;;
10565;SDS011;5331;48.148;16.326;2022-11-18T10:52:25;5.10;;;4.47;;
10565;SDS011;5331;48.148;16.326;2022-11-18T10:57:59;3.22;;;2.70;;
10565;SDS011;5331;48.148;16.326;2022-11-18T11:00:33;3.17;;;2.60;;
10565;SDS011;5331;48.148;16.326;2022-11-18T11:03:23;2.05;;;1.95;;
10565;SDS011;5331;48.148;16.326;2022-11-18T11:08:45;2.30;;;2.20;;
10565;SDS011;5331;48.148;16.326;2022-11-18T11:11:18;1.92;;;1.80;;
10565;SDS011;5331;48.148;16.326;2022-11-18T11:13:50;2.03;;;1.92;;
10565;SDS011;5331;48.148;16.326;2022-11-18T11:16:22;1.95;;;1.85;;
10565;SDS011;5331;48.148;16.326;2022-11-18T11:18:52;2.10;;;1.90;;
10565;SDS011;5331;48.148;16.326;2022-11-18T11:21:24;3.03;;;2.80;;
10565;SDS011;5331;48.148;16.326;2022-11-18T11:23:52;2.42;;;2.30;;
10565;SDS011;5331;48.148;16.326;2022-11-18T11:26:21;1.95;;;1.85;;
10565;SDS011;5331;48.148;16.326;2022-11-18T11:28:58;1.75;;;1.63;;
10565;SDS011;5331;48.148;16.326;2022-11-18T11:31:34;1.80;;;1.70;;
10565;SDS011;5331;48.148;16.326;2022-11-18T11:34:09;1.77;;;1.67;;
10565;SDS011;5331;48.148;16.326;2022-11-18T11:36:44;1.27;;;1.27;;
10565;SDS011;5331;48.148;16.326;2022-11-18T11:42:27;2.20;;;1.55;;
10565;SDS011;5331;48.148;16.326;2022-11-18T11:45:06;1.60;;;1.50;;
10565;SDS011;5331;48.148;16.326;2022-11-18T11:47:46;1.48;;;1.38;;
10565;SDS011;5331;48.148;16.326;2022-11-18T11:50:26;1.52;;;1.42;;
10565;SDS011;5331;48.148;16.326;2022-11-18T11:53:19;1.55;;;1.45;;
10565;SDS011;5331;48.148;16.326;2022-11-18T11:55:55;1.58;;;1.50;;
10565;SDS011;5331;48.148;16.326;2022-11-18T11:58:34;1.90;;;1.50;;
10565;SDS011;5331;48.148;16.326;2022-11-18T12:01:18;1.80;;;1.70;;
10565;SDS011;5331;48.148;16.326;2022-11-18T12:03:49;2.38;;;1.73;;
10565;SDS011;5331;48.148;16.326;2022-11-18T12:06:24;1.70;;;1.60;;
10565;SDS011;5331;48.148;16.326;2022-11-18T12:08:55;1.52;;;1.50;;
10565;SDS011;5331;48.148;16.326;2022-11-18T12:11:30;1.67;;;1.58;;
10565;SDS011;5331;48.148;16.326;2022-11-18T12:14:04;2.05;;;1.85;;
10565;SDS011;5331;48.148;16.326;2022-11-18T12:16:38;1.95;;;1.77;;
10565;SDS011;5331;48.148;16.326;2022-11-18T12:19:13;2.75;;;1.83;;
10565;SDS011;5331;48.148;16.326;2022-11-18T12:21:52;1.70;;;1.60;;
10565;SDS011;5331;48.148;16.326;2022-11-18T12:27:05;1.67;;;1.58;;
10565;SDS011;5331;48.148;16.326;2022-11-18T12:29:40;1.48;;;1.38;;
10565;SDS011;5331;48.148;16.326;2022-11-18T12:32:25;1.70;;;1.60;;
10565;SDS011;5331;48.148;16.326;2022-11-18T12:35:00;1.60;;;1.50;;
10565;SDS011;5331;48.148;16.326;2022-11-18T12:37:42;1.45;;;1.40;;
10565;SDS011;5331;48.148;16.326;2022-11-18T12:55:30;1.77;;;1.67;;
10565;SDS011;5331;48.148;16.326;2022-11-18T12:57:58;1.60;;;1.50;;
10565;SDS011;5331;48.148;16.326;2022-11-18T13:00:29;1.60;;;1.50;;
10565;SDS011;5331;48.148;16.326;2022-11-18T13:03:20;1.65;;;1.55;;
10565;SDS011;5331;48.148;16.326;2022-11-18T13:05:57;1.83;;;1.73;;
10565;SDS011;5331;48.148;16.326;2022-11-18T13:08:26;1.75;;;1.65;;
10565;SDS011;5331;48.148;16.326;2022-11-18T13:10:56;2.00;;;1.90;;
10565;SDS011;5331;48.148;16.326;2022-11-18T13:13:51;1.98;;;1.88;;
10565;SDS011;5331;48.148;16.326;2022-11-18T13:16:40;10.68;;;7.18;;
10565;SDS011;5331;48.148;16.326;2022-11-18T13:19:27;11.38;;;7.57;;
10565;SDS011;5331;48.148;16.326;2022-11-18T13:21:54;10.95;;;7.32;;
10565;SDS011;5331;48.148;16.326;2022-11-18T13:24:43;11.23;;;7.80;;
10565;SDS011;5331;48.148;16.326;2022-11-18T13:27:17;13.32;;;8.70;;
10565;SDS011;5331;48.148;16.326;2022-11-18T13:29:52;12.25;;;7.93;;
10565;SDS011;5331;48.148;16.326;2022-11-18T13:32:26;11.70;;;7.68;;
10565;SDS011;5331;48.148;16.326;2022-11-18T13:34:54;10.52;;;7.53;;
10565;SDS011;5331;48.148;16.326;2022-11-18T13:37:23;10.20;;;7.28;;
10565;SDS011;5331;48.148;16.326;2022-11-18T13:39:52;13.90;;;8.50;;
10565;SDS011;5331;48.148;16.326;2022-11-18T13:42:22;14.50;;;8.43;;
10565;SDS011;5331;48.148;16.326;2022-11-18T13:44:51;12.93;;;8.50;;
10565;SDS011;5331;48.148;16.326;2022-11-18T13:47:21;11.17;;;7.30;;
10565;SDS011;5331;48.148;16.326;2022-11-18T13:49:54;11.00;;;7.57;;
10565;SDS011;5331;48.148;16.326;2022-11-18T13:52:26;12.33;;;7.27;;
10565;SDS011;5331;48.148;16.326;2022-11-18T13:54:56;11.10;;;6.70;;
10565;SDS011;5331;48.148;16.326;2022-11-18T13:57:26;12.13;;;7.00;;
10565;SDS011;5331;48.148;16.326;2022-11-18T14:00:05;9.67;;;6.60;;
10565;SDS011;5331;48.148;16.326;2022-11-18T14:02:44;9.43;;;6.53;;
10565;SDS011;5331;48.148;16.326;2022-11-18T14:05:19;10.67;;;7.07;;
10565;SDS011;5331;48.148;16.326;2022-11-18T14:07:57;10.40;;;6.87;;
10565;SDS011;5331;48.148;16.326;2022-11-18T14:10:31;9.73;;;6.70;;
10565;SDS011;5331;48.148;16.326;2022-11-18T14:13:14;9.50;;;6.50;;
10565;SDS011;5331;48.148;16.326;2022-11-18T14:15:43;10.00;;;7.20;;
10565;SDS011;5331;48.148;16.326;2022-11-18T14:18:16;10.03;;;6.70;;
10565;SDS011;5331;48.148;16.326;2022-11-18T14:20:50;11.33;;;6.43;;
10565;SDS011;5331;48.148;16.326;2022-11-18T14:23:19;10.37;;;6.73;;
10565;SDS011;5331;48.148;16.326;2022-11-18T14:25:52;10.77;;;6.80;;
10565;SDS011;5331;48.148;16.326;2022-11-18T14:28:22;9.63;;;6.63;;
10565;SDS011;5331;48.148;16.326;2022-11-18T14:30:58;10.13;;;6.90;;
10565;SDS011;5331;48.148;16.326;2022-11-18T14:33:28;10.00;;;6.57;;
10565;SDS011;5331;48.148;16.326;2022-11-18T14:35:56;10.97;;;6.80;;
10565;SDS011;5331;48.148;16.326;2022-11-18T14:38:27;11.07;;;7.47;;
10565;SDS011;5331;48.148;16.326;2022-11-18T14:41:04;9.67;;;6.67;;
10565;SDS011;5331;48.148;16.326;2022-11-18T14:43:34;9.50;;;6.77;;
10565;SDS011;5331;48.148;16.326;2022-11-18T14:46:02;9.77;;;6.87;;
10565;SDS011;5331;48.148;16.326;2022-11-18T14:48:32;11.23;;;6.70;;
10565;SDS011;5331;48.148;16.326;2022-11-18T14:50:59;9.73;;;6.70;;
10565;SDS011;5331;48.148;16.326;2022-11-18T14:53:26;9.33;;;6.70;;
10565;SDS011;5331;48.148;16.326;2022-11-18T14:55:53;9.37;;;6.33;;
10565;SDS011;5331;48.148;16.326;2022-11-18T14:58:23;7.73;;;6.63;;
10565;SDS011;5331;48.148;16.326;2022-11-18T15:00:52;8.33;;;6.47;;
10565;SDS011;5331;48.148;16.326;2022-11-18T15:03:19;7.33;;;6.03;;
10565;SDS011;5331;48.148;16.326;2022-11-18T15:05:45;9.27;;;5.80;;
10565;SDS011;5331;48.148;16.326;2022-11-18T15:08:13;8.10;;;4.93;;
10565;SDS011;5331;48.148;16.326;2022-11-18T15:10:40;5.07;;;4.43;;
10565;SDS011;5331;48.148;16.326;2022-11-18T15:13:07;6.83;;;5.63;;
10565;SDS011;5331;48.148;16.326;2022-11-18T15:15:34;7.20;;;5.90;;
10565;SDS011;5331;48.148;16.326;2022-11-18T15:18:02;6.37;;;5.67;;
10565;SDS011;5331;48.148;16.326;2022-11-18T15:20:29;8.67;;;5.83;;